Latest Weather Observations for Woomera

IDS60801

Issued at 1:01 pm CDT Thursday 30 March 2017 (issued every 30 minutes, with the page automatically refreshed every 10 minutes)

About weather observations | Map of weather stations | Latest weather observations for SA | Other Formats
Station Details ID: 016001 Name: WOOMERA AERODROME Lat: -31.16 Lon: 136.81 Height: 166.6 m
Data from the previous 72 hours. | See also: Recent months at Woomera
Date/Time
CDT
Temp
°C
App
Temp
°C
Dew
Point
°C
Rel
Hum
%
Delta-T
°C
Wind Press
QNH
hPa
Press
MSL
hPa
Rain since
9am
mm
Dir  Spd
km/h
Gust
km/h
Spd
kts
Gust
kts
30/12:30pm 19.4 12.1 4.4 37 7.2 S 32 43 17 23 1024.6 1023.8 0.0
30/12:19pm 18.3 11.8 4.5 40 6.6 S 28 46 15 25 1024.7 1023.9 0.0
30/12:00pm 18.3 11.7 4.1 39 6.7 S 28 41 15 22 1024.9 1024.1 0.0
30/11:30am 16.8 10.2 4.2 43 5.9 SSW 28 39 15 21 1025.1 1024.3 0.0
30/11:00am 16.9 9.6 4.6 44 5.9 S 32 43 17 23 1024.9 1024.1 0.0
30/10:30am 15.4 8.5 4.5 48 5.1 S 30 39 16 21 1024.9 1024.1 0.0
30/10:00am 15.0 8.0 4.1 48 5.1 S 30 39 16 21 1024.7 1023.9 0.0
30/09:30am 14.1 7.5 4.4 52 4.5 S 28 39 15 21 1024.6 1023.8 0.0
30/09:00am 13.4 6.9 4.8 56 4.0 SSW 28 39 15 21 1024.2 1023.4 0.0
30/08:30am 12.4 7.1 5.1 61 3.4 SSW 22 28 12 15 1023.9 1023.1 0.0
30/08:00am 11.6 6.3 5.0 64 3.0 S 22 28 12 15 1023.1 1022.4 0.0
30/07:30am 11.4 6.5 5.3 66 2.8 S 20 24 11 13 1022.8 1022.1 0.0
30/07:00am 11.5 6.2 5.2 65 2.9 SSW 22 30 12 16 1022.3 1021.6 0.0
30/06:30am 11.7 6.8 5.1 64 3.0 S 20 30 11 16 1022.0 1021.3 0.0
30/06:00am 11.8 6.9 5.2 64 3.1 SSW 20 26 11 14 1021.7 1021.0 0.0
30/05:30am 11.9 7.0 5.3 64 3.1 SSW 20 30 11 16 1021.4 1020.7 0.0
30/05:00am 12.4 6.8 5.3 62 3.3 SSW 24 35 13 19 1021.1 1020.4 0.0
30/04:30am 12.7 6.3 5.4 61 3.4 S 28 37 15 20 1020.9 1020.2 0.0
30/04:00am 13.0 6.5 4.9 58 3.8 S 28 37 15 20 1020.8 1020.1 0.0
30/03:30am 13.1 7.0 5.0 58 3.8 SSW 26 37 14 20 1020.8 1020.1 0.0
30/03:00am 13.3 7.7 5.2 58 3.8 SSW 24 33 13 18 1020.6 1019.9 0.0
30/02:30am 13.5 7.5 5.4 58 3.8 SSW 26 35 14 19 1020.5 1019.8 0.0
30/02:00am 14.0 6.8 5.1 55 4.2 SSW 32 43 17 23 1020.5 1019.8 0.0
30/01:30am 14.4 6.9 4.4 51 4.6 SSW 33 43 18 23 1020.3 1019.6 0.0
30/01:00am 14.7 6.7 3.8 48 5.0 SSW 35 46 19 25 1020.1 1019.4 0.0
30/12:30am 15.2 7.1 5.4 52 4.7 SSW 37 46 20 25 1020.3 1019.6 0.0
30/12:00am 15.8 8.6 7.6 58 4.1 SSW 35 44 19 24 1020.0 1019.2 0.0
 
Date/Time
CDT
Temp
°C
App
Temp
°C
Dew
Point
°C
Rel
Hum
%
Delta-T
°C
Wind Press
QNH
hPa
Press
MSL
hPa
Rain since
9am
mm
Dir  Spd
km/h
Gust
km/h
Spd
kts
Gust
kts
29/11:30pm 16.1 8.1 7.3 56 4.4 SSW 39 52 21 28 1020.0 1019.2 0.0
29/11:00pm 16.6 7.6 7.3 54 4.7 SSW 44 59 24 32 1019.9 1019.1 0.0
29/10:30pm 17.7 8.5 8.0 53 5.0 SSW 46 57 25 31 1019.5 1018.7 0.0
29/10:09pm 18.7 10.7 7.5 48 5.7 SSW 39 57 21 31 1019.2 1018.4 0.0
29/10:00pm 19.1 11.3 8.4 50 5.6 SSW 39 50 21 27 1019.0 1018.2 0.0
29/09:30pm 19.4 12.6 9.3 52 5.4 SW 35 46 19 25 1018.5 1017.7 0.0
29/09:00pm 19.7 12.3 9.9 53 5.3 SW 39 50 21 27 1017.9 1017.1 0.0
29/08:30pm 20.1 13.7 10.8 55 5.1 SW 35 46 19 25 1017.1 1016.4 0.0
29/08:00pm 21.1 13.7 11.2 53 5.5 SSW 41 56 22 30 1016.3 1015.6 0.0
29/07:30pm 22.2 14.6 11.9 52 5.8 SSW 43 56 23 30 1015.7 1015.0 0.0
29/07:00pm 23.2 16.0 11.9 49 6.4 SW 41 54 22 29 1015.2 1014.5 0.0
29/06:30pm 24.4 16.8 11.7 45 7.2 SW 43 54 23 29 1014.6 1013.8 0.0
29/06:00pm 25.5 18.2 10.1 38 8.6 SW 39 52 21 28 1014.0 1013.2 0.0
29/05:30pm 26.2 18.7 9.5 35 9.3 SW 39 56 21 30 1013.7 1012.9 0.0
29/05:00pm 26.5 19.0 9.4 34 9.5 SW 39 48 21 26 1013.3 1012.5 0.0
29/04:30pm 26.8 19.5 8.7 32 9.9 SW 37 48 20 26 1013.2 1012.4 0.0
29/04:00pm 28.0 20.3 7.3 27 11.2 SSW 37 56 20 30 1013.1 1012.3 0.0
29/03:58pm 27.6 19.9 6.9 27 11.1 SSW 37 56 20 30 1013.1 1012.3 0.0
29/03:30pm 27.7 20.0 7.0 27 11.1 SW 37 50 20 27 1013.0 1012.2 0.0
29/03:00pm 27.5 20.6 6.3 26 11.2 SW 32 48 17 26 1013.2 1012.4 0.0
29/02:30pm 28.3 21.6 5.8 24 11.8 SW 30 44 16 24 1013.3 1012.5 0.0
29/02:00pm 27.7 21.3 5.3 24 11.6 SW 28 41 15 22 1013.7 1012.9 0.0
29/01:30pm 27.1 21.0 4.8 24 11.4 SW 26 39 14 21 1014.0 1013.2 0.0
29/01:00pm 26.3 19.3 5.8 27 10.7 SW 32 46 17 25 1014.3 1013.5 0.0
29/12:30pm 25.9 20.8 7.5 31 9.8 SW 24 33 13 18 1014.5 1013.7 0.0
29/12:00pm 25.1 19.5 7.3 32 9.4 SW 26 35 14 19 1014.9 1014.2 0.0
29/11:30am 24.0 18.3 6.7 33 9.0 SW 26 33 14 18 1015.0 1014.3 0.0
29/11:00am 23.1 17.7 6.4 34 8.6 SSW 24 30 13 16 1015.1 1014.4 0.0
29/10:30am 23.3 17.0 5.7 32 9.0 SW 28 39 15 21 1015.0 1014.3 0.0
29/10:00am 22.2 17.5 7.6 39 7.7 SSW 22 30 12 16 1014.9 1014.2 0.0
29/09:30am 20.2 16.2 9.2 49 5.9 SSW 20 24 11 13 1014.7 1013.9 0.0
29/09:00am 18.8 15.9 9.6 55 4.9 S 15 17 8 9 1014.4 1013.6 0.0
29/08:30am 16.8 15.5 10.0 64 3.6 SSE 7 11 4 6 1014.1 1013.3 0.0
29/08:00am 15.3 13.6 9.9 70 2.8 S 9 13 5 7 1013.9 1013.1 0.0
29/07:30am 15.0 13.0 10.0 72 2.6 SSW 11 15 6 8 1013.8 1013.0 0.0
29/07:00am 15.3 12.5 10.1 71 2.7 S 15 17 8 9 1013.5 1012.7 0.0
29/06:30am 15.7 12.1 10.0 69 3.0 S 19 22 10 12 1013.3 1012.5 0.0
29/06:00am 15.7 12.1 9.8 68 3.1 S 19 22 10 12 1013.2 1012.4 0.0
29/05:30am 16.1 12.9 10.0 67 3.2 SSW 17 20 9 11 1012.9 1012.1 0.0
29/05:00am 16.2 12.9 9.6 65 3.5 S 17 20 9 11 1012.6 1011.8 0.0
29/04:30am 16.6 12.9 9.5 63 3.7 S 19 24 10 13 1012.6 1011.8 0.0
29/04:00am 17.0 13.1 8.7 58 4.3 SSW 19 22 10 12 1012.5 1011.7 0.0
29/03:30am 17.2 13.0 7.3 52 5.0 SSW 19 22 10 12 1012.6 1011.8 0.0
29/03:00am 16.3 12.3 5.0 47 5.4 SSW 15 17 8 9 1012.7 1011.9 0.0
29/02:30am 17.4 14.6 5.0 44 6.0 SW 9 11 5 6 1012.5 1011.7 0.0
29/02:00am 17.3 14.4 4.9 44 6.0 SW 9 11 5 6 1012.6 1011.8 0.0
29/01:30am 18.0 15.1 4.9 42 6.3 SW 9 11 5 6 1012.7 1011.9 0.0
29/01:00am 17.8 14.9 4.4 41 6.4 SW 9 11 5 6 1013.0 1012.2 0.0
29/12:30am 18.0 15.0 4.2 40 6.6 W 9 11 5 6 1013.2 1012.4 0.0
29/12:00am 17.6 14.0 2.8 37 6.8 WSW 11 11 6 6 1013.6 1012.8 0.0
 
Date/Time
CDT
Temp
°C
App
Temp
°C
Dew
Point
°C
Rel
Hum
%
Delta-T
°C
Wind Press
QNH
hPa
Press
MSL
hPa
Rain since
9am
mm
Dir  Spd
km/h
Gust
km/h
Spd
kts
Gust
kts
28/11:30pm 18.1 14.7 2.0 34 7.4 W 9 9 5 5 1013.8 1013.0 0.0
28/11:00pm 19.3 16.5 3.1 34 7.6 W 7 9 4 5 1014.0 1013.2 0.0
28/10:30pm 19.3 16.0 2.2 32 7.9 WSW 9 11 5 6 1014.0 1013.2 0.0
28/10:00pm 19.2 14.9 0.8 29 8.3 WSW 13 13 7 7 1014.1 1013.3 0.0
28/09:30pm 20.1 16.0 0.0 26 9.0 WSW 11 13 6 7 1014.1 1013.3 0.0
28/09:00pm 21.5 17.8 0.1 24 9.7 SW 9 11 5 6 1014.0 1013.2 0.0
28/08:30pm 21.7 17.7 0.3 24 9.7 SW 11 13 6 7 1013.7 1012.9 0.0
28/08:00pm 23.0 18.7 0.8 23 10.3 SSW 13 17 7 9 1013.4 1012.6 0.0
28/07:30pm 24.6 19.8 2.7 24 10.6 SW 17 20 9 11 1013.3 1012.5 0.0
28/07:00pm 25.8 21.9 5.4 27 10.5 S 15 20 8 11 1013.4 1012.6 0.0
28/06:30pm 26.6 22.5 4.4 24 11.3 SSW 15 20 8 11 1013.2 1012.4 0.0
28/06:00pm 26.9 22.6 5.2 25 11.2 SSW 17 24 9 13 1013.0 1012.2 0.0
28/05:30pm 27.2 23.0 5.5 25 11.3 SW 17 24 9 13 1013.2 1012.4 0.0
28/05:00pm 27.2 23.1 6.0 26 11.1 SW 17 24 9 13 1013.3 1012.5 0.0
28/04:30pm 26.9 23.2 6.3 27 10.8 SW 15 24 8 13 1013.5 1012.7 0.0
28/04:00pm 26.3 21.7 5.8 27 10.7 SSW 19 26 10 14 1013.9 1013.1 0.0
28/03:30pm 26.1 21.5 5.7 27 10.6 SW 19 26 10 14 1014.3 1013.5 0.0
28/03:00pm 25.7 22.3 5.8 28 10.3 SSW 13 20 7 11 1014.5 1013.7 0.0
28/02:30pm 25.5 21.3 5.7 28 10.2 SW 17 26 9 14 1015.0 1014.3 0.0
28/02:00pm 25.1 21.1 6.8 31 9.6 SSW 17 26 9 14 1015.2 1014.5 0.0
28/01:30pm 24.6 21.3 6.4 31 9.5 SSW 13 24 7 13 1015.5 1014.8 0.0
28/01:00pm 23.8 19.9 7.0 34 8.8 SSE 17 26 9 14 1016.0 1015.3 0.0
28/12:30pm 24.0 20.1 7.2 34 8.8 S 17 22 9 12 1016.5 1015.8 0.0
28/12:00pm 23.0 20.0 7.9 38 8.0 S 13 20 7 11 1016.8 1016.1 0.0
28/11:30am 22.2 19.0 8.3 41 7.4 SSE 15 20 8 11 1017.2 1016.5 0.0
28/11:00am 21.4 17.5 8.7 44 6.8 SE 19 24 10 13 1017.6 1016.8 0.0
28/10:30am 20.4 16.7 9.3 49 5.9 SSE 19 26 10 14 1017.8 1017.0 0.0
28/10:00am 19.6 15.7 9.5 52 5.4 SSE 20 26 11 14 1017.7 1016.9 0.0
28/09:30am 18.5 14.2 9.3 55 4.9 SSE 22 28 12 15 1017.7 1016.9 0.0
28/09:00am 17.4 13.0 9.1 58 4.3 SSE 22 28 12 15 1017.6 1016.8 0.0
28/08:30am 16.2 11.5 9.2 63 3.6 S 24 30 13 16 1017.1 1016.4 0.0
28/08:00am 15.3 11.3 9.2 67 3.2 S 20 28 11 15 1016.8 1016.1 0.0
28/07:30am 15.1 11.3 9.7 70 2.8 S 20 26 11 14 1016.7 1016.0 0.0
28/07:00am 15.2 11.5 10.0 71 2.7 S 20 24 11 13 1016.5 1015.8 0.0
28/06:30am 15.5 11.9 10.7 73 2.6 S 20 26 11 14 1016.3 1015.6 0.0
28/06:00am 15.8 12.3 11.0 73 2.6 S 20 28 11 15 1016.1 1015.4 0.0
28/05:30am 15.9 12.6 10.9 72 2.7 S 19 24 10 13 1015.8 1015.1 0.0
28/05:00am 16.3 12.7 10.6 69 3.1 S 20 26 11 14 1015.6 1014.9 0.0
28/04:30am 16.7 13.1 10.5 67 3.3 S 20 26 11 14 1015.5 1014.8 0.0
28/04:00am 17.2 13.2 10.3 64 3.7 S 22 30 12 16 1015.8 1015.1 0.0
28/03:30am 17.5 13.5 10.4 63 3.8 S 22 28 12 15 1015.9 1015.2 0.0
28/03:00am 17.8 14.1 10.2 61 4.1 S 20 26 11 14 1016.0 1015.3 0.0
28/02:30am 18.0 14.6 10.4 61 4.1 S 19 24 10 13 1016.0 1015.3 0.0
28/02:00am 18.4 14.8 10.0 58 4.5 S 19 22 10 12 1015.9 1015.2 0.0
28/01:30am 19.1 15.4 9.6 54 5.1 SSE 19 24 10 13 1016.2 1015.5 0.0
28/01:00am 19.7 16.4 9.6 52 5.4 SE 17 20 9 11 1016.1 1015.4 0.0
28/12:30am 20.3 17.0 9.5 50 5.8 SSE 17 19 9 10 1016.1 1015.4 0.0
28/12:00am 20.8 17.5 9.7 49 6.0 SSE 17 22 9 12 1016.2 1015.5 0.0
 
Date/Time
CDT
Temp
°C
App
Temp
°C
Dew
Point
°C
Rel
Hum
%
Delta-T
°C
Wind Press
QNH
hPa
Press
MSL
hPa
Rain since
9am
mm
Dir  Spd
km/h
Gust
km/h
Spd
kts
Gust
kts
27/11:30pm 21.2 18.1 8.8 45 6.6 SSE 15 19 8 10 1016.4 1015.7 0.0
27/11:00pm 21.6 17.2 2.8 29 9.0 SSE 15 20 8 11 1016.4 1015.7 0.0
27/10:30pm 22.3 17.5 2.4 27 9.5 S 17 20 9 11 1016.3 1015.6 0.0
27/10:00pm 22.1 18.0 2.2 27 9.4 SSW 13 19 7 10 1016.0 1015.3 0.0
27/09:30pm 23.4 18.1 1.7 24 10.3 SSW 19 24 10 13 1015.7 1015.0 0.0
27/09:00pm 24.2 18.9 1.8 23 10.7 SSW 19 26 10 14 1015.6 1014.9 0.0
27/08:30pm 24.7 19.9 2.8 24 10.7 SSW 17 22 9 12 1015.3 1014.6 0.0
27/08:00pm 26.0 20.8 3.3 23 11.3 S 20 28 11 15 1015.0 1014.3 0.0
27/07:30pm 26.6 20.9 5.0 25 11.1 S 24 35 13 19 1014.7 1013.9 0.0
27/07:00pm 27.3 21.2 5.0 24 11.5 S 26 35 14 19 1014.4 1013.6 0.0
27/06:30pm 27.9 21.4 4.9 23 11.9 S 28 37 15 20 1014.2 1013.4 0.0
27/06:00pm 28.3 21.6 5.8 24 11.8 SSW 30 41 16 22 1014.0 1013.2 0.0
27/05:30pm 28.3 21.3 5.8 24 11.8 S 32 46 17 25 1013.9 1013.1 0.0
27/05:00pm 29.3 22.3 6.0 23 12.4 S 32 39 17 21 1013.7 1012.9 0.0
27/04:30pm 28.7 21.7 6.1 24 12.0 S 32 41 17 22 1013.7 1012.9 0.0
27/04:00pm 28.8 21.8 6.8 25 11.8 S 33 50 18 27 1013.9 1013.1 0.0
27/03:32pm 29.1 22.2 6.5 24 12.1 SSW 32 50 17 27 1014.0 1013.2 0.0
27/03:30pm 28.9 22.1 6.9 25 11.8 S 32 44 17 24 1013.9 1013.1 0.0
27/03:08pm 29.3 22.8 6.7 24 12.1 S 30 48 16 26 1014.0 1013.2 0.0
27/03:00pm 28.8 21.8 6.8 25 11.8 S 33 48 18 26 1014.1 1013.3 0.0
27/02:30pm 29.4 22.7 7.3 25 12.0 SSW 32 44 17 24 1014.5 1013.7 0.0
27/02:00pm 28.6 21.6 6.7 25 11.7 SSW 33 43 18 23 1014.8 1014.0 0.0
27/01:30pm 28.3 21.8 8.1 28 11.0 SSW 32 44 17 24 1014.9 1014.2 0.0
27/01:09pm 28.3 21.9 8.6 29 10.9 SSW 32 50 17 27 1015.0 1014.3 0.0

Other Formats:

Comma delimited format used in spreadsheet applications
http://www.bom.gov.au/fwo/IDS60801/IDS60801.94659.axf

JavaScript Object Notation format (JSON) in row-major order
http://www.bom.gov.au/fwo/IDS60801/IDS60801.94659.json